Moorhead, MN

11:29 AM CST on December 14, 2017 (GMT -0600)
Moorhead Municipal

Weather History for KJKJ - June, 2013

Change the Weather History Date:

Sunday, June 16, 2013

  Actual Average (KFAR) Record (KFAR)
Temperature  
Mean Temperature 72 °F -  
Max Temperature 87 °F 75 °F 100 °F (1933)
Min Temperature 57 °F 52 °F 38 °F (1972)
Cooling Degree Days 7    
Growing Degree Days 22 (Base 50)    
Moisture  
Dew Point 36 °F    
Average Humidity 38    
Maximum Humidity 82    
Minimum Humidity 4    
Precipitation  
Precipitation 0.00 in - - ()
Sea Level Pressure  
Sea Level Pressure 29.86 in    
Wind  
Wind Speed 10 mph (West)    
Max Wind Speed 29 mph    
Max Gust Speed 38 mph    
Visibility 10 miles    
Events      
Averages and records for this station are not official NWS values.
T = Trace of Precipitation, MM = Missing Value Source: NWS Daily Summary

Daily Weather History Graph

Daily Weather History Graph

Search for Another Location

Airport or City:

Trip Planner

Search our weather history database for the weather conditions in past years. The results will help you decide how hot, cold, wet, or windy it might be!

Date:

Astronomy

Jun. 16, 2013 Rise Set
Actual Time 5:31 AM CDT 9:23 PM CDT
Civil Twilight 4:52 AM CDT 10:02 PM CDT
Nautical Twilight 3:58 AM CDT 10:57 PM CDT
Astronomical Twilight 2:38 AM CDT 12:17 AM CDT
Moon 1:36 PM CDT (6/16) 1:03 AM CDT (6/16)
Length of Visible Light 17h 10m
Length of Day
15h 51m
Waxing Crescent, 50% of the Moon is Illuminated
Jun 16
Waxing Crescent
Jun 16
First Quarter
Jun 23
Full
Jun 29
Last Quarter
Jul 8
New

Hourly Weather History & Observations

Time (CDT) Temp. Dew Point Humidity Pressure Visibility Wind Dir Wind Speed Gust Speed Precip Events Conditions
12:15 AM 64.4 °F 46.4 °F 52% 29.87 in 10.0 mi WSW 5.8 mph - N/A   Clear
12:35 AM 62.6 °F 46.4 °F 55% 29.88 in 10.0 mi WSW 5.8 mph - N/A   Clear
12:54 AM 62.6 °F 46.4 °F 55% 29.88 in 10.0 mi SW 6.9 mph - N/A   Clear
1:15 AM 62.6 °F 46.4 °F 55% 29.87 in 10.0 mi WSW 5.8 mph - N/A   Clear
1:35 AM 60.8 °F 48.2 °F 63% 29.87 in 10.0 mi WSW 5.8 mph - N/A   Clear
1:54 AM 60.8 °F 48.2 °F 63% 29.87 in 10.0 mi WSW 4.6 mph - N/A   Clear
2:15 AM 60.8 °F 48.2 °F 63% 29.87 in 10.0 mi WSW 4.6 mph - N/A   Clear
2:35 AM 60.8 °F 48.2 °F 63% 29.87 in 10.0 mi WSW 5.8 mph - N/A   Clear
2:55 AM 59.0 °F 50.0 °F 72% 29.87 in 10.0 mi SW 6.9 mph - N/A   Clear
3:15 AM 60.8 °F 48.2 °F 63% 29.88 in 10.0 mi SW 6.9 mph - N/A   Clear
3:34 AM 59.0 °F 50.0 °F 72% 29.88 in 10.0 mi WSW 5.8 mph - N/A   Clear
3:55 AM 59.0 °F 50.0 °F 72% 29.88 in 10.0 mi SW 5.8 mph - N/A   Clear
4:15 AM 59.0 °F 50.0 °F 72% 29.88 in 10.0 mi SW 4.6 mph - N/A   Clear
4:34 AM 57.2 °F 50.0 °F 77% 29.87 in 10.0 mi SW 4.6 mph - N/A   Clear
4:55 AM 57.2 °F 50.0 °F 77% 29.88 in 10.0 mi SW 3.5 mph - N/A   Clear
5:15 AM 57.2 °F 50.0 °F 77% 29.88 in 10.0 mi SW 4.6 mph - N/A   Clear
5:34 AM 57.2 °F 51.8 °F 82% 29.88 in 10.0 mi SW 5.8 mph - N/A   Clear
5:55 AM 57.2 °F 51.8 °F 82% 29.89 in 10.0 mi SW 3.5 mph - N/A   Clear
6:15 AM 57.2 °F 51.8 °F 82% 29.89 in 10.0 mi SW 3.5 mph - N/A   Clear
6:34 AM 57.2 °F 51.8 °F 82% 29.90 in 10.0 mi SW 6.9 mph - N/A   Clear
6:55 AM 60.8 °F 51.8 °F 72% 29.90 in 10.0 mi SW 5.8 mph - N/A   Clear
7:14 AM 60.8 °F 51.8 °F 72% 29.90 in 10.0 mi WSW 8.1 mph - N/A   Clear
7:35 AM 64.4 °F 51.8 °F 64% 29.90 in 10.0 mi West 9.2 mph - N/A   Clear
7:55 AM 66.2 °F 50.0 °F 56% 29.89 in 10.0 mi West 10.4 mph - N/A   Clear
8:14 AM 68.0 °F 50.0 °F 52% 29.89 in 10.0 mi West 11.5 mph - N/A   Clear
8:35 AM 69.8 °F 50.0 °F 49% 29.89 in 10.0 mi WSW 10.4 mph - N/A   Clear
8:55 AM 71.6 °F 50.0 °F 46% 29.89 in 10.0 mi West 11.5 mph - N/A   Clear
9:14 AM 73.4 °F 48.2 °F 41% 29.89 in 10.0 mi West 10.4 mph - N/A   Clear
9:35 AM 75.2 °F 48.2 °F 38% 29.88 in 10.0 mi West 11.5 mph - N/A   Clear
9:54 AM 75.2 °F 44.6 °F 34% 29.88 in 10.0 mi West 11.5 mph 18.4 mph N/A   Clear
10:15 AM 77.0 °F 42.8 °F 29% 29.88 in 10.0 mi West 13.8 mph 17.3 mph N/A   Clear
10:35 AM 78.8 °F 37.4 °F 23% 29.87 in 10.0 mi West 16.1 mph 19.6 mph N/A   Clear
10:54 AM 80.6 °F 35.6 °F 20% 29.87 in 10.0 mi West 11.5 mph 21.9 mph N/A   Clear
11:15 AM 80.6 °F 33.8 °F 18% 29.86 in 10.0 mi West 16.1 mph 21.9 mph N/A   Clear
11:34 AM 82.4 °F 32.0 °F 16% 29.86 in 10.0 mi WSW 16.1 mph 23.0 mph N/A   Clear
11:55 AM 82.4 °F 26.6 °F 13% 29.85 in 10.0 mi West 16.1 mph 25.3 mph N/A   Clear
12:15 PM 82.4 °F 19.4 °F 10% 29.85 in 10.0 mi WNW 24.2 mph 31.1 mph N/A   Clear
12:34 PM 84.2 °F 12.2 °F 7% 29.84 in 10.0 mi West 19.6 mph 33.4 mph N/A   Clear
12:55 PM 84.2 °F 19.4 °F 9% 29.84 in 10.0 mi West 17.3 mph 28.8 mph N/A   Clear
1:15 PM 84.2 °F 15.8 °F 8% 29.84 in 10.0 mi WNW 20.7 mph 28.8 mph N/A   Clear
1:34 PM 84.2 °F 15.8 °F 8% 29.84 in 10.0 mi WNW 15.0 mph - N/A   Scattered Clouds
1:55 PM 84.2 °F 15.8 °F 8% 29.84 in 10.0 mi West 12.7 mph 25.3 mph N/A   Clear
2:15 PM 86.0 °F 8.6 °F 5% 29.84 in 10.0 mi WNW 17.3 mph 27.6 mph N/A   Scattered Clouds
2:34 PM 86.0 °F 14.0 °F 7% 29.83 in 10.0 mi West 18.4 mph 26.5 mph N/A   Scattered Clouds
2:55 PM 86.0 °F 3.2 °F 4% 29.83 in 10.0 mi West 21.9 mph 26.5 mph N/A   Scattered Clouds
3:14 PM 86.0 °F 6.8 °F 5% 29.83 in 10.0 mi WNW 20.7 mph 26.5 mph N/A   Scattered Clouds
3:35 PM 87.8 °F -4.0 °F 4% 29.83 in 10.0 mi West 19.6 mph 35.7 mph N/A   Clear
3:55 PM 86.0 °F 6.8 °F 5% 29.82 in 10.0 mi NW 26.5 mph 29.9 mph N/A   Clear
4:14 PM 87.8 °F 1.4 °F 4% 29.82 in 10.0 mi West 19.6 mph 29.9 mph N/A   Clear
4:35 PM 86.0 °F 3.2 °F 4% 29.82 in 10.0 mi West 26.5 mph 35.7 mph N/A   Clear
4:55 PM 86.0 °F 10.4 °F 6% 29.82 in 10.0 mi WNW 19.6 mph 27.6 mph N/A   Clear
5:14 PM 86.0 °F 8.6 °F 5% 29.81 in 10.0 mi WNW 23.0 mph 32.2 mph N/A   Clear
5:35 PM 86.0 °F 14.0 °F 7% 29.81 in 10.0 mi WNW 21.9 mph 33.4 mph N/A   Clear
5:55 PM 86.0 °F 21.2 °F 9% 29.81 in 10.0 mi WNW 24.2 mph 28.8 mph N/A   Clear
6:14 PM 84.2 °F 21.2 °F 10% 29.81 in 10.0 mi WNW 25.3 mph 32.2 mph N/A   Clear
6:35 PM 84.2 °F 24.8 °F 11% 29.82 in 10.0 mi West 20.7 mph 32.2 mph N/A   Clear
6:55 PM 84.2 °F 23.0 °F 11% 29.82 in 10.0 mi NW 28.8 mph 38.0 mph N/A   Scattered Clouds
7:15 PM 82.4 °F 23.0 °F 11% 29.83 in 10.0 mi WNW 19.6 mph 31.1 mph N/A   Clear
7:35 PM 80.6 °F 39.2 °F 23% 29.84 in 10.0 mi NNW 20.7 mph 28.8 mph N/A   Clear
7:54 PM 78.8 °F 42.8 °F 28% 29.84 in 10.0 mi NNW 18.4 mph - N/A   Clear
8:15 PM 78.8 °F 42.8 °F 28% 29.84 in 10.0 mi NNW 18.4 mph 21.9 mph N/A   Clear
8:35 PM 75.2 °F 44.6 °F 34% 29.85 in 10.0 mi NNW 15.0 mph - N/A   Clear
8:54 PM 75.2 °F 44.6 °F 34% 29.86 in 10.0 mi NNW 9.2 mph - N/A   Clear
9:15 PM 73.4 °F 46.4 °F 38% 29.86 in 10.0 mi NNW 8.1 mph - N/A   Clear
9:34 PM 73.4 °F 46.4 °F 38% 29.87 in 10.0 mi NNW 10.4 mph - N/A   Clear
9:55 PM 71.6 °F 46.4 °F 41% 29.87 in 10.0 mi NNW 10.4 mph - N/A   Scattered Clouds
10:15 PM 71.6 °F 46.4 °F 41% 29.88 in 10.0 mi NNW 9.2 mph - N/A   Clear
10:34 PM 69.8 °F 48.2 °F 46% 29.88 in 10.0 mi NNW 6.9 mph - N/A   Clear
10:55 PM 69.8 °F 48.2 °F 46% 29.89 in 10.0 mi NW 5.8 mph - N/A   Clear
11:15 PM 66.2 °F 50.0 °F 56% 29.89 in 10.0 mi NW 4.6 mph - N/A   Clear
11:34 PM 66.2 °F 51.8 °F 60% 29.90 in 10.0 mi NW 4.6 mph - N/A   Clear
11:55 PM 64.4 °F 51.8 °F 64% 29.90 in 10.0 mi WNW 4.6 mph - N/A   Clear